Time;durP1;ratioP1;P1;durP2;ratioP2;P2;SDS_P1;SDS_P2;PMS_P1;PMS_P2;Temp;Humidity;BMP_temperature;BMP_pressure;BME280_temperature;BME280_humidity;BME280_pressure;Samples;Min_cycle;Max_cycle;Signal;HPM_P1;HPM_P2
2023/04/28 00:01:17;;;;;;;11.38;7.47;;;10.20;72.00;;;;;;5013664;28;20057;-82
2023/04/28 00:03:42;;;;;;;16.38;8.38;;;10.10;71.00;;;;;;5044036;28;20045;-78
2023/04/28 00:06:08;;;;;;;15.10;7.00;;;10.10;73.10;;;;;;5027325;28;20041;-79
2023/04/28 00:08:33;;;;;;;12.52;7.70;;;10.10;73.10;;;;;;5042537;28;20033;-77
2023/04/28 00:10:59;;;;;;;9.95;5.55;;;10.00;72.80;;;;;;5011092;28;20040;-77
2023/04/28 00:13:25;;;;;;;9.00;7.05;;;9.90;75.80;;;;;;5027416;28;20035;-77
2023/04/28 00:15:53;;;;;;;9.27;6.22;;;10.00;74.50;;;;;;5023174;28;20032;-77
2023/04/28 00:18:19;;;;;;;16.17;6.30;;;9.90;73.40;;;;;;5025494;28;20041;-77
2023/04/28 00:20:45;;;;;;;10.27;6.43;;;9.80;72.90;;;;;;5027173;28;20040;-77
2023/04/28 00:23:11;;;;;;;9.98;7.25;;;9.90;74.70;;;;;;5009055;28;20053;-78
2023/04/28 00:25:36;;;;;;;14.40;8.80;;;9.80;74.50;;;;;;5025408;28;20082;-77
2023/04/28 00:28:02;;;;;;;11.98;7.95;;;9.70;74.60;;;;;;5029330;28;20033;-77
2023/04/28 00:30:29;;;;;;;15.20;8.07;;;9.70;76.40;;;;;;5005491;28;20045;-78
2023/04/28 00:32:54;;;;;;;14.93;8.32;;;9.60;77.20;;;;;;5026963;28;20042;-78
2023/04/28 00:35:20;;;;;;;14.77;8.40;;;9.50;77.70;;;;;;5029303;28;20484;-77
2023/04/28 00:37:46;;;;;;;12.55;7.47;;;9.50;78.70;;;;;;5008111;28;20047;-78
2023/04/28 00:40:11;;;;;;;13.90;8.98;;;9.40;79.30;;;;;;5027135;28;20039;-78
2023/04/28 00:42:37;;;;;;;23.25;8.27;;;9.40;80.20;;;;;;5009441;28;20108;-78
2023/04/28 00:45:05;;;;;;;15.10;8.90;;;9.40;79.20;;;;;;5026319;28;20063;-77
2023/04/28 00:47:34;;;;;;;11.40;5.97;;;9.40;79.30;;;;;;5010962;28;20362;-78
2023/04/28 00:50:00;;;;;;;9.90;6.22;;;9.40;79.00;;;;;;5012160;28;20033;-78
2023/04/28 00:52:26;;;;;;;14.30;8.93;;;9.40;80.40;;;;;;5027259;28;20033;-80
2023/04/28 00:54:51;;;;;;;12.45;7.93;;;9.40;80.10;;;;;;5009273;28;21421;-77
2023/04/28 00:57:17;;;;;;;12.50;8.30;;;9.30;80.70;;;;;;5011359;28;20025;-77
2023/04/28 00:59:43;;;;;;;14.00;8.02;;;9.30;79.80;;;;;;5026838;28;20029;-77
2023/04/28 01:02:08;;;;;;;14.57;8.23;;;9.20;83.10;;;;;;5008474;28;20039;-78
2023/04/28 01:04:34;;;;;;;11.18;8.68;;;9.10;82.60;;;;;;5025702;28;20116;-77
2023/04/28 01:07:00;;;;;;;16.95;9.95;;;9.00;84.10;;;;;;5041063;28;20389;-78
2023/04/28 01:09:26;;;;;;;15.65;8.65;;;9.10;84.60;;;;;;5009166;28;20470;-77
2023/04/28 01:11:51;;;;;;;16.40;10.25;;;9.10;83.20;;;;;;5010351;28;20151;-78
2023/04/28 01:14:17;;;;;;;14.63;10.80;;;9.00;86.00;;;;;;5045705;28;20110;-78
2023/04/28 01:16:42;;;;;;;13.55;9.00;;;8.90;88.40;;;;;;5010152;28;20034;-77
2023/04/28 01:19:11;;;;;;;18.20;9.52;;;8.90;88.00;;;;;;5043106;28;20036;-78
2023/04/28 01:21:37;;;;;;;14.07;9.45;;;8.80;91.50;;;;;;5024752;28;20113;-77
2023/04/28 01:24:04;;;;;;;13.85;9.10;;;8.80;90.90;;;;;;5008101;28;20132;-78
2023/04/28 01:26:30;;;;;;;16.17;10.27;;;8.70;92.50;;;;;;5010978;28;20607;-78
2023/04/28 01:28:55;;;;;;;16.63;10.55;;;8.80;91.80;;;;;;5028063;28;20112;-78
2023/04/28 01:31:21;;;;;;;18.85;10.52;;;8.70;93.00;;;;;;5023398;28;20029;-77
2023/04/28 01:33:47;;;;;;;20.25;10.25;;;8.70;93.10;;;;;;5023356;28;20037;-77
2023/04/28 01:36:12;;;;;;;18.15;9.75;;;8.70;95.90;;;;;;5027177;28;20394;-77
2023/04/28 01:38:38;;;;;;;16.80;9.77;;;8.70;94.80;;;;;;5023954;28;21091;-78
2023/04/28 01:41:03;;;;;;;17.00;10.35;;;8.70;95.50;;;;;;5025545;28;20037;-79
2023/04/28 01:43:29;;;;;;;16.77;10.30;;;8.60;94.80;;;;;;5025759;28;20033;-79
2023/04/28 01:45:55;;;;;;;18.13;9.82;;;8.60;95.70;;;;;;5025483;28;20374;-79
2023/04/28 01:48:20;;;;;;;7.82;5.40;;;8.70;95.40;;;;;;5041178;28;20040;-79
2023/04/28 01:50:46;;;;;;;17.83;9.98;;;8.70;95.30;;;;;;5005848;28;20033;-79
2023/04/28 01:53:11;;;;;;;21.30;10.25;;;8.70;95.50;;;;;;5026460;28;20503;-79
2023/04/28 01:55:37;;;;;;;19.30;10.63;;;8.70;96.80;;;;;;5025332;28;20083;-76
2023/04/28 01:58:03;;;;;;;32.63;10.82;;;8.60;97.30;;;;;;5024702;28;20452;-78
2023/04/28 02:00:28;;;;;;;17.60;10.43;;;8.60;97.30;;;;;;5008787;28;20081;-79
2023/04/28 02:02:54;;;;;;;18.80;11.30;;;8.50;97.00;;;;;;5025323;28;20022;-79
2023/04/28 02:05:20;;;;;;;27.10;11.32;;;8.50;98.00;;;;;;5025458;28;20124;-79
2023/04/28 02:07:45;;;;;;;16.27;10.88;;;8.50;98.20;;;;;;5040379;28;20053;-79
2023/04/28 02:10:11;;;;;;;22.92;12.13;;;8.50;99.60;;;;;;5026021;28;20037;-79
2023/04/28 02:12:36;;;;;;;17.42;10.18;;;8.50;99.30;;;;;;5037203;28;20491;-78
2023/04/28 02:15:02;;;;;;;11.90;8.75;;;8.50;99.90;;;;;;5024822;28;20033;-79
2023/04/28 02:17:30;;;;;;;21.40;11.32;;;8.60;99.90;;;;;;5025522;28;20063;-79
2023/04/28 02:19:57;;;;;;;18.70;11.40;;;8.60;99.50;;;;;;5041038;28;20045;-79
2023/04/28 02:22:23;;;;;;;22.38;12.20;;;8.50;99.60;;;;;;5041962;28;20106;-79
2023/04/28 02:24:48;;;;;;;15.75;10.57;;;8.50;99.70;;;;;;5018214;28;20040;-79
2023/04/28 02:27:14;;;;;;;17.35;10.65;;;8.50;99.70;;;;;;5009233;28;20041;-78
2023/04/28 02:29:39;;;;;;;19.75;10.98;;;8.50;99.90;;;;;;5024084;28;20059;-80
2023/04/28 02:32:05;;;;;;;18.45;11.77;;;8.40;99.90;;;;;;5023490;28;20044;-77
2023/04/28 02:34:31;;;;;;;15.93;11.02;;;8.40;99.90;;;;;;5004610;28;20500;-79
2023/04/28 02:36:56;;;;;;;19.20;11.20;;;8.40;99.90;;;;;;5038052;28;20036;-79
2023/04/28 02:39:24;;;;;;;20.77;11.98;;;8.40;99.90;;;;;;5040275;28;20095;-78
2023/04/28 02:41:51;;;;;;;17.65;11.60;;;8.30;99.90;;;;;;5023757;28;20041;-78
2023/04/28 02:44:16;;;;;;;18.88;11.55;;;8.40;99.90;;;;;;5007611;28;20035;-79
2023/04/28 02:46:42;;;;;;;21.13;12.48;;;8.40;99.90;;;;;;5023223;28;20116;-78
2023/04/28 02:49:07;;;;;;;16.10;11.20;;;8.40;99.90;;;;;;5026810;28;20086;-77
2023/04/28 02:51:33;;;;;;;13.75;9.35;;;8.40;99.90;;;;;;5026403;28;20043;-78
2023/04/28 02:53:58;;;;;;;18.67;10.00;;;8.40;99.90;;;;;;5010531;28;20030;-83
2023/04/28 02:56:24;;;;;;;17.70;10.88;;;8.40;99.90;;;;;;5026064;28;20036;-82
2023/04/28 02:58:50;;;;;;;24.08;12.43;;;8.40;99.90;;;;;;5035358;28;20095;-81
2023/04/28 03:01:15;;;;;;;19.60;12.70;;;8.40;99.90;;;;;;5007777;28;20029;-81
2023/04/28 03:03:41;;;;;;;22.55;12.57;;;8.40;99.90;;;;;;5041231;28;20091;-79
2023/04/28 03:06:06;;;;;;;19.05;12.35;;;8.40;99.90;;;;;;5026448;28;20032;-81
2023/04/28 03:08:32;;;;;;;26.38;12.38;;;8.40;99.90;;;;;;5025324;28;20036;-80
2023/04/28 03:10:57;;;;;;;22.38;13.38;;;8.40;99.90;;;;;;5023093;28;20029;-79
2023/04/28 03:13:24;;;;;;;20.13;12.70;;;8.40;99.90;;;;;;5008378;28;20085;-80
2023/04/28 03:15:49;;;;;;;20.27;13.13;;;8.40;99.90;;;;;;5023644;28;20469;-81
2023/04/28 03:18:16;;;;;;;14.05;9.88;;;8.50;99.90;;;;;;5022105;28;20112;-80
2023/04/28 03:20:41;;;;;;;20.25;13.13;;;8.50;99.90;;;;;;5008170;28;20032;-80
2023/04/28 03:23:07;;;;;;;17.80;11.57;;;8.50;99.90;;;;;;5037309;28;20025;-80
2023/04/28 03:25:32;;;;;;;22.35;13.77;;;8.60;99.90;;;;;;5009257;28;20116;-80
2023/04/28 03:27:58;;;;;;;21.73;13.27;;;8.50;99.90;;;;;;5008797;28;20056;-81
2023/04/28 03:30:23;;;;;;;10.15;7.63;;;8.50;99.90;;;;;;5009716;28;20094;-81
2023/04/28 03:32:49;;;;;;;11.88;8.52;;;8.50;99.90;;;;;;5008848;28;20510;-81
2023/04/28 03:35:14;;;;;;;11.82;7.47;;;8.50;99.90;;;;;;5023056;28;20530;-84
2023/04/28 03:37:40;;;;;;;9.65;7.05;;;8.60;99.90;;;;;;5008457;28;20041;-81
2023/04/28 03:40:06;;;;;;;19.95;11.75;;;8.70;99.90;;;;;;5042314;28;20107;-81
2023/04/28 03:42:32;;;;;;;14.02;9.77;;;8.70;99.90;;;;;;5023980;28;20032;-82
2023/04/28 03:44:58;;;;;;;9.93;6.63;;;8.70;99.90;;;;;;5040767;28;20029;-81
2023/04/28 03:47:23;;;;;;;7.57;5.28;;;8.80;99.90;;;;;;5022855;28;20037;-81
2023/04/28 03:49:49;;;;;;;9.93;6.07;;;8.80;99.90;;;;;;5040556;28;20064;-81
2023/04/28 03:52:14;;;;;;;18.88;8.57;;;8.90;99.90;;;;;;5036307;28;20508;-81
2023/04/28 03:54:40;;;;;;;11.05;7.80;;;9.00;99.90;;;;;;5011225;28;20428;-82
2023/04/28 03:57:06;;;;;;;13.00;8.07;;;9.00;99.90;;;;;;5028880;28;20033;-82
2023/04/28 03:59:31;;;;;;;12.90;6.85;;;9.00;99.90;;;;;;5011780;28;20032;-82
2023/04/28 04:01:57;;;;;;;9.65;5.10;;;9.00;99.90;;;;;;5030349;28;20113;-82
2023/04/28 04:04:23;;;;;;;11.32;6.45;;;9.10;99.90;;;;;;5012833;28;20032;-82
2023/04/28 04:06:48;;;;;;;8.70;5.18;;;9.20;99.90;;;;;;5025842;28;20048;-82
2023/04/28 04:09:14;;;;;;;8.52;5.18;;;9.20;99.90;;;;;;5012459;28;20025;-81
2023/04/28 04:11:39;;;;;;;10.73;6.18;;;9.20;99.90;;;;;;5028353;28;20037;-81
2023/04/28 04:14:05;;;;;;;7.85;4.90;;;9.30;99.90;;;;;;5009972;28;20030;-82
2023/04/28 04:16:31;;;;;;;9.60;6.38;;;9.20;99.90;;;;;;5029371;28;20749;-82
2023/04/28 04:18:56;;;;;;;8.93;5.28;;;9.30;99.90;;;;;;5011891;28;20040;-81
2023/04/28 04:21:22;;;;;;;9.20;7.22;;;9.30;99.90;;;;;;5046670;28;20031;-81
2023/04/28 04:23:47;;;;;;;10.85;8.35;;;9.30;99.90;;;;;;5025574;28;20057;-82
2023/04/28 04:26:13;;;;;;;11.75;7.85;;;9.30;99.90;;;;;;5045934;28;20512;-82
2023/04/28 04:28:38;;;;;;;12.13;7.45;;;9.30;99.90;;;;;;5024361;28;20040;-83
2023/04/28 04:31:04;;;;;;;17.65;8.48;;;9.30;99.90;;;;;;5012904;28;20495;-82
2023/04/28 04:33:29;;;;;;;14.40;9.73;;;9.20;99.90;;;;;;5026322;28;20032;-84
2023/04/28 04:35:55;;;;;;;13.10;8.38;;;9.10;99.90;;;;;;5007460;28;20037;-83
2023/04/28 04:38:21;;;;;;;18.58;10.23;;;9.40;99.90;;;;;;5027957;28;20392;-83
2023/04/28 04:40:47;;;;;;;17.88;10.88;;;9.30;99.90;;;;;;5008189;28;20106;-83
2023/04/28 04:43:12;;;;;;;14.85;10.48;;;9.20;99.90;;;;;;5040827;28;20025;-82
2023/04/28 04:45:38;;;;;;;22.13;11.13;;;9.30;99.90;;;;;;5028033;28;20035;-83
2023/04/28 04:48:04;;;;;;;18.35;12.38;;;9.10;99.90;;;;;;5011956;28;20109;-83
2023/04/28 04:50:29;;;;;;;21.20;12.93;;;9.10;99.90;;;;;;5010870;28;20405;-83
2023/04/28 04:52:56;;;;;;;15.90;11.90;;;9.20;99.90;;;;;;5028201;28;20501;-82
2023/04/28 04:55:21;;;;;;;18.63;12.05;;;9.20;99.90;;;;;;5009329;28;20029;-83
2023/04/28 04:57:47;;;;;;;15.98;11.27;;;9.30;99.90;;;;;;5025078;28;20064;-83
2023/04/28 05:00:13;;;;;;;15.45;10.85;;;9.40;99.90;;;;;;5009342;28;20032;-80
2023/04/28 05:02:38;;;;;;;15.40;10.95;;;9.30;99.90;;;;;;5025969;28;20059;-81
2023/04/28 05:05:05;;;;;;;17.15;9.18;;;9.30;99.90;;;;;;5042536;28;20041;-82
2023/04/28 05:07:30;;;;;;;13.20;9.38;;;9.30;99.90;;;;;;5009197;28;20743;-82
2023/04/28 05:09:56;;;;;;;13.27;9.02;;;9.30;99.90;;;;;;5026557;28;20113;-81
2023/04/28 05:12:21;;;;;;;10.70;8.15;;;9.30;99.90;;;;;;5009477;28;20110;-82
2023/04/28 05:14:47;;;;;;;13.35;8.73;;;9.40;99.90;;;;;;5010714;28;20115;-80
2023/04/28 05:17:12;;;;;;;14.85;8.93;;;9.40;99.90;;;;;;5021444;28;20408;-80
2023/04/28 05:19:38;;;;;;;16.88;11.45;;;9.40;99.90;;;;;;5037611;28;20140;-80
2023/04/28 05:22:04;;;;;;;14.30;10.40;;;9.40;99.90;;;;;;5021240;28;20076;-79
2023/04/28 05:24:29;;;;;;;16.75;10.48;;;9.40;99.90;;;;;;5043167;28;20676;-79
2023/04/28 05:26:57;;;;;;;17.65;10.38;;;9.50;99.90;;;;;;5025835;28;20032;-79
2023/04/28 05:29:22;;;;;;;16.52;9.23;;;9.40;99.90;;;;;;5027268;28;20037;-79
2023/04/28 05:31:48;;;;;;;19.15;10.95;;;9.60;99.90;;;;;;5024108;28;20658;-80
2023/04/28 05:34:13;;;;;;;16.15;11.38;;;9.60;99.90;;;;;;5025037;28;20061;-79
2023/04/28 05:36:39;;;;;;;20.90;10.63;;;9.50;99.90;;;;;;5043604;28;20393;-81
2023/04/28 05:39:05;;;;;;;22.08;11.63;;;9.50;99.90;;;;;;5006070;28;20064;-81
2023/04/28 05:41:31;;;;;;;18.08;11.95;;;9.50;99.90;;;;;;5041709;28;20061;-80
2023/04/28 05:43:56;;;;;;;17.30;11.70;;;9.50;99.90;;;;;;5023810;28;20650;-81
2023/04/28 05:46:22;;;;;;;13.75;10.27;;;9.60;99.90;;;;;;5006533;28;20037;-79
2023/04/28 05:48:47;;;;;;;20.63;12.68;;;9.60;99.90;;;;;;5019760;28;20029;-79
2023/04/28 05:51:13;;;;;;;16.50;10.13;;;9.70;99.90;;;;;;5024650;28;20543;-81
2023/04/28 05:53:39;;;;;;;13.07;9.18;;;9.80;99.90;;;;;;5024229;28;20128;-81
2023/04/28 05:56:05;;;;;;;11.23;7.07;;;9.90;99.90;;;;;;5001760;28;20048;-80
2023/04/28 05:58:30;;;;;;;11.10;7.75;;;9.90;99.90;;;;;;5009801;28;20090;-80
2023/04/28 06:00:56;;;;;;;10.75;8.50;;;10.00;99.90;;;;;;5039668;28;20100;-80
2023/04/28 06:03:21;;;;;;;14.77;9.10;;;10.00;99.90;;;;;;5033802;28;20029;-80
2023/04/28 06:05:47;;;;;;;10.30;6.03;;;10.00;99.90;;;;;;5019653;28;20106;-79
2023/04/28 06:08:13;;;;;;;10.20;7.18;;;10.00;99.90;;;;;;5040342;28;20396;-80
2023/04/28 06:10:38;;;;;;;11.32;7.97;;;10.10;99.90;;;;;;5040416;28;20032;-79
2023/04/28 06:13:05;;;;;;;14.77;10.07;;;10.00;99.90;;;;;;5022437;28;20049;-80
2023/04/28 06:15:31;;;;;;;9.80;7.32;;;10.00;99.90;;;;;;5041243;28;20039;-80
2023/04/28 06:17:57;;;;;;;15.40;9.82;;;10.00;99.90;;;;;;5022618;28;20578;-80
2023/04/28 06:20:23;;;;;;;14.32;9.13;;;10.10;99.90;;;;;;5024155;28;20037;-80
2023/04/28 06:22:49;;;;;;;15.57;9.48;;;10.10;99.90;;;;;;5024026;28;20037;-80
2023/04/28 06:25:14;;;;;;;12.80;10.15;;;10.10;99.90;;;;;;5038228;28;20052;-79
2023/04/28 06:27:40;;;;;;;18.65;10.52;;;10.10;99.90;;;;;;5039313;28;20480;-80
2023/04/28 06:30:06;;;;;;;15.18;10.20;;;10.20;99.90;;;;;;5023846;28;20040;-80
2023/04/28 06:32:32;;;;;;;14.55;10.65;;;10.20;99.90;;;;;;5038206;28;20396;-80
2023/04/28 06:34:58;;;;;;;15.85;11.02;;;10.30;99.90;;;;;;5022707;28;20029;-80
2023/04/28 06:37:23;;;;;;;11.85;8.00;;;10.30;99.90;;;;;;5006341;28;20040;-80
2023/04/28 06:39:49;;;;;;;16.40;11.93;;;10.40;99.90;;;;;;5023767;28;20043;-80
2023/04/28 06:42:17;;;;;;;18.30;9.35;;;10.50;99.90;;;;;;5026082;28;20082;-80
2023/04/28 06:44:43;;;;;;;13.27;9.60;;;10.60;99.90;;;;;;5040883;28;20037;-80
2023/04/28 06:47:09;;;;;;;16.52;11.85;;;10.80;99.90;;;;;;5024878;28;20112;-80
2023/04/28 06:49:35;;;;;;;19.13;11.55;;;11.00;99.90;;;;;;5039203;28;20116;-80
2023/04/28 06:52:00;;;;;;;17.88;13.38;;;11.30;99.90;;;;;;5015514;28;20068;-80
2023/04/28 06:54:26;;;;;;;15.90;11.48;;;11.50;99.90;;;;;;5040653;28;20192;-80
2023/04/28 06:56:51;;;;;;;12.07;8.35;;;11.70;99.90;;;;;;5022889;28;20045;-80
2023/04/28 06:59:17;;;;;;;10.82;8.07;;;11.80;99.90;;;;;;5025052;28;20142;-79
2023/04/28 07:01:42;;;;;;;6.25;5.47;;;11.90;99.90;;;;;;5023708;28;20460;-79
2023/04/28 07:04:08;;;;;;;5.28;4.43;;;12.10;99.90;;;;;;5040509;28;20488;-80
2023/04/28 07:06:33;;;;;;;5.30;4.40;;;12.10;99.90;;;;;;5039008;28;20162;-80
2023/04/28 07:08:59;;;;;;;4.85;4.35;;;12.20;99.90;;;;;;5040067;28;20091;-79
2023/04/28 07:11:25;;;;;;;6.15;4.55;;;12.20;99.90;;;;;;5024846;28;20040;-79
2023/04/28 07:13:50;;;;;;;8.48;4.28;;;12.40;99.90;;;;;;5040215;28;20040;-79
2023/04/28 07:16:20;;;;;;;8.10;5.05;;;12.50;99.90;;;;;;5038700;28;20036;-79
2023/04/28 07:18:46;;;;;;;7.57;4.95;;;12.60;99.90;;;;;;5021192;28;20037;-78
2023/04/28 07:21:12;;;;;;;7.88;4.60;;;12.60;99.90;;;;;;5041624;28;20044;-79
2023/04/28 07:23:39;;;;;;;9.02;6.60;;;12.80;99.90;;;;;;5022247;28;20431;-78
2023/04/28 07:26:04;;;;;;;7.95;5.88;;;12.90;99.90;;;;;;5024322;28;20025;-79
2023/04/28 07:28:30;;;;;;;6.20;4.07;;;13.00;99.90;;;;;;5027269;28;20058;-80
2023/04/28 07:30:56;;;;;;;8.35;5.20;;;13.10;99.90;;;;;;5044314;28;20025;-80
2023/04/28 07:33:21;;;;;;;9.15;6.10;;;13.20;99.90;;;;;;5023822;28;20029;-80
2023/04/28 07:35:48;;;;;;;6.90;4.43;;;13.40;99.90;;;;;;5009086;28;20038;-80
2023/04/28 07:38:13;;;;;;;7.38;5.15;;;13.60;99.90;;;;;;5048194;28;20048;-79
2023/04/28 07:40:40;;;;;;;8.23;5.82;;;13.60;99.90;;;;;;5040779;28;20021;-81
2023/04/28 07:43:06;;;;;;;13.15;6.07;;;13.80;99.90;;;;;;5027513;28;20025;-80
2023/04/28 07:45:32;;;;;;;7.18;5.25;;;14.00;99.90;;;;;;5029614;28;20055;-80
2023/04/28 07:47:57;;;;;;;7.78;5.18;;;14.00;99.90;;;;;;5008330;28;20021;-80
2023/04/28 07:50:23;;;;;;;8.40;5.97;;;14.20;99.90;;;;;;5044197;28;20017;-80
2023/04/28 07:52:49;;;;;;;8.30;4.63;;;14.30;99.90;;;;;;5025058;28;20112;-79
2023/04/28 07:55:14;;;;;;;6.35;4.63;;;14.50;99.90;;;;;;5028703;28;20444;-80
2023/04/28 07:57:41;;;;;;;5.10;3.78;;;14.60;99.90;;;;;;5008191;28;20531;-80
2023/04/28 08:00:07;;;;;;;8.02;4.20;;;14.70;99.90;;;;;;5029276;28;20040;-80
2023/04/28 08:02:33;;;;;;;7.65;3.65;;;14.80;99.90;;;;;;5041111;28;20033;-80
2023/04/28 08:04:58;;;;;;;6.45;4.07;;;14.80;99.90;;;;;;5024707;28;20507;-80
2023/04/28 08:07:24;;;;;;;6.57;5.15;;;15.00;99.90;;;;;;5026382;28;20633;-80
2023/04/28 08:09:49;;;;;;;4.72;3.83;;;15.20;99.90;;;;;;5022237;28;20741;-80
2023/04/28 08:12:15;;;;;;;4.85;3.83;;;15.00;99.90;;;;;;5043351;28;20481;-79
2023/04/28 08:14:41;;;;;;;7.55;4.28;;;15.00;99.90;;;;;;5007210;28;20037;-80
2023/04/28 08:17:06;;;;;;;9.80;5.25;;;15.10;99.90;;;;;;5025938;28;20041;-81
2023/04/28 08:19:32;;;;;;;6.30;3.92;;;15.40;99.90;;;;;;5026575;28;20043;-80
2023/04/28 08:21:58;;;;;;;7.82;4.60;;;15.40;99.90;;;;;;5043550;28;20082;-80
2023/04/28 08:24:24;;;;;;;5.85;3.78;;;15.50;99.90;;;;;;5042858;28;20025;-80
2023/04/28 08:26:50;;;;;;;5.75;3.83;;;15.70;99.90;;;;;;5035709;28;20048;-79
2023/04/28 08:29:15;;;;;;;7.57;4.68;;;15.70;99.90;;;;;;5027749;28;20032;-79
2023/04/28 08:31:41;;;;;;;7.05;3.33;;;15.60;99.90;;;;;;5039525;28;20105;-80
2023/04/28 08:34:06;;;;;;;8.27;3.72;;;15.50;99.90;;;;;;5027321;28;20044;-80
2023/04/28 08:36:32;;;;;;;7.50;3.70;;;15.60;99.90;;;;;;5025592;28;20032;-80
2023/04/28 08:38:59;;;;;;;7.38;3.42;;;16.00;99.90;;;;;;5024831;28;20049;-79
2023/04/28 08:41:26;;;;;;;6.47;4.10;;;16.00;99.90;;;;;;5045099;28;20033;-80
2023/04/28 08:43:53;;;;;;;6.85;3.83;;;16.40;99.90;;;;;;5026523;28;20532;-79
2023/04/28 08:46:19;;;;;;;8.18;3.53;;;16.50;99.90;;;;;;5038584;28;20037;-79
2023/04/28 08:48:45;;;;;;;9.98;4.28;;;16.90;99.90;;;;;;5008726;28;20078;-80
2023/04/28 08:51:15;;;;;;;6.55;4.50;;;16.60;99.90;;;;;;5027242;28;20029;-80
2023/04/28 08:53:43;;;;;;;5.68;3.72;;;16.50;99.90;;;;;;5040462;28;20110;-80
2023/04/28 08:56:09;;;;;;;11.55;4.80;;;16.60;99.90;;;;;;5010329;28;20091;-80
2023/04/28 08:58:36;;;;;;;4.30;3.90;;;16.70;99.90;;;;;;5008427;28;20706;-80
2023/04/28 09:01:03;;;;;;;7.40;4.95;;;16.90;99.90;;;;;;5028907;28;20033;-80
2023/04/28 09:03:29;;;;;;;7.30;4.18;;;16.60;99.90;;;;;;5043507;28;20048;-80
2023/04/28 09:05:55;;;;;;;6.93;4.63;;;16.60;99.90;;;;;;5027137;28;20037;-80
2023/04/28 09:08:20;;;;;;;6.75;3.83;;;16.50;99.90;;;;;;5006758;28;20045;-80
2023/04/28 09:10:46;;;;;;;7.20;4.10;;;16.80;99.90;;;;;;5018593;28;20041;-79
2023/04/28 09:13:25;;;;;;;9.05;3.75;;;16.90;99.90;;;;;;5042028;28;20672;-80
2023/04/28 09:15:51;;;;;;;6.53;4.53;;;17.10;99.90;;;;;;5025451;28;20541;-80
2023/04/28 09:18:16;;;;;;;7.47;4.65;;;17.40;99.90;;;;;;5027188;28;20029;-79
2023/04/28 09:20:42;;;;;;;10.68;5.07;;;17.70;99.90;;;;;;5023494;28;20078;-80
2023/04/28 09:23:20;;;;;;;11.35;4.70;;;18.20;99.90;;;;;;5023535;28;20108;-79
2023/04/28 09:26:06;;;;;;;6.55;4.28;;;18.40;99.90;;;;;;5041088;28;20029;-78
2023/04/28 09:28:33;;;;;;;7.95;4.07;;;18.60;99.90;;;;;;5023758;28;20029;-79
2023/04/28 09:30:58;;;;;;;10.18;5.22;;;18.60;99.90;;;;;;5024581;28;20053;-79
2023/04/28 09:33:24;;;;;;;6.68;4.60;;;18.50;99.90;;;;;;5005127;28;20067;-79
2023/04/28 09:35:49;;;;;;;6.00;4.30;;;18.50;99.90;;;;;;5025109;28;20806;-79
2023/04/28 09:38:15;;;;;;;6.18;3.60;;;18.50;99.90;;;;;;5025827;28;20176;-79
2023/04/28 09:40:51;;;;;;;7.25;4.32;;;18.20;99.90;;;;;;5041615;28;20121;-80
2023/04/28 09:43:32;;;;;;;8.60;5.68;;;18.10;99.90;;;;;;5024890;28;20558;-79
2023/04/28 09:45:59;;;;;;;5.47;3.10;;;18.10;99.90;;;;;;5041950;28;20400;-78
2023/04/28 09:48:28;;;;;;;7.10;3.17;;;17.70;99.90;;;;;;5025282;28;20567;-78
2023/04/28 09:50:58;;;;;;;7.03;4.43;;;17.50;99.90;;;;;;5040874;28;20033;-78
2023/04/28 09:53:24;;;;;;;4.80;3.15;;;17.60;99.90;;;;;;5024519;28;20040;-78
2023/04/28 09:55:51;;;;;;;6.32;3.83;;;17.60;99.90;;;;;;5024611;28;20036;-78
2023/04/28 09:58:21;;;;;;;7.35;4.80;;;17.30;99.90;;;;;;5025152;28;20033;-78
2023/04/28 10:00:52;;;;;;;12.43;5.15;;;17.20;99.90;;;;;;5039202;28;20509;-78
2023/04/28 10:03:17;;;;;;;10.27;3.75;;;17.10;99.90;;;;;;5022579;28;20099;-78
2023/04/28 10:05:44;;;;;;;9.00;3.55;;;17.20;99.90;;;;;;5026747;28;20263;-78
2023/04/28 10:08:09;;;;;;;5.50;3.97;;;17.50;99.90;;;;;;5026387;28;20021;-78
2023/04/28 10:10:36;;;;;;;7.13;3.85;;;17.90;99.90;;;;;;5039852;28;20119;-78
2023/04/28 10:13:02;;;;;;;9.90;6.20;;;17.70;99.90;;;;;;5025458;28;20494;-78
2023/04/28 10:15:27;;;;;;;6.95;4.40;;;18.00;99.90;;;;;;5005732;28;20025;-79
2023/04/28 10:17:53;;;;;;;5.55;4.65;;;18.10;99.90;;;;;;5024320;28;20093;-77
2023/04/28 10:20:20;;;;;;;10.68;5.57;;;18.30;99.90;;;;;;5021610;28;20503;-77
2023/04/28 10:22:59;;;;;;;9.02;5.65;;;18.70;99.90;;;;;;5042113;28;20037;-77
2023/04/28 10:25:30;;;;;;;7.43;4.43;;;18.50;99.90;;;;;;5020460;28;20035;-77
2023/04/28 10:27:57;;;;;;;6.38;4.35;;;18.30;99.90;;;;;;5008783;28;20033;-77
2023/04/28 10:30:23;;;;;;;10.00;5.95;;;18.50;99.90;;;;;;5006627;28;20044;-77
2023/04/28 10:33:10;;;;;;;8.75;5.05;;;18.50;99.90;;;;;;5006035;28;20397;-78
2023/04/28 10:35:41;;;;;;;7.32;4.55;;;18.20;99.90;;;;;;5034376;28;20028;-77
2023/04/28 10:38:11;;;;;;;6.85;5.22;;;18.40;99.90;;;;;;5041546;28;20508;-77
2023/04/28 10:40:38;;;;;;;7.25;4.47;;;18.50;99.90;;;;;;5038471;28;20033;-77
2023/04/28 10:43:04;;;;;;;3.22;2.42;;;18.60;99.90;;;;;;5023446;28;20025;-76
2023/04/28 10:45:47;;;;;;;9.10;4.90;;;18.20;99.90;;;;;;5024811;28;20087;-77
2023/04/28 10:48:13;;;;;;;5.78;3.10;;;17.80;99.90;;;;;;5041953;28;20524;-77
2023/04/28 10:51:02;;;;;;;7.07;4.50;;;18.20;99.90;;;;;;5021613;28;20567;-77
2023/04/28 10:53:49;;;;;;;5.30;3.90;;;18.50;99.90;;;;;;5029820;28;20450;-77
2023/04/28 10:56:23;;;;;;;5.28;4.38;;;18.50;99.90;;;;;;5043709;28;20130;-77
2023/04/28 10:58:52;;;;;;;7.75;5.10;;;18.60;99.90;;;;;;5040557;28;20033;-77
2023/04/28 11:01:17;;;;;;;7.13;4.50;;;18.00;99.90;;;;;;5023482;28;20029;-77
2023/04/28 11:03:49;;;;;;;7.63;4.30;;;18.30;99.90;;;;;;5041061;28;20424;-77
2023/04/28 11:06:27;;;;;;;7.50;4.57;;;18.50;99.90;;;;;;5040110;28;20037;-77
2023/04/28 11:08:56;;;;;;;8.13;4.68;;;18.20;99.90;;;;;;5036977;28;20067;-77
2023/04/28 11:11:29;;;;;;;9.25;5.55;;;18.10;99.90;;;;;;4674765;28;10000012;-77
2023/04/28 11:14:13;;;;;;;6.55;4.55;;;17.90;99.90;;;;;;5036176;28;20044;-77
2023/04/28 11:16:55;;;;;;;9.30;5.47;;;17.80;99.90;;;;;;5037953;28;20041;-77
2023/04/28 11:19:24;;;;;;;7.60;5.90;;;17.90;99.90;;;;;;5006253;28;20406;-78
2023/04/28 11:21:50;;;;;;;6.20;4.53;;;17.50;99.90;;;;;;5003625;28;20536;-78
2023/04/28 11:24:16;;;;;;;7.40;5.80;;;17.90;99.90;;;;;;5037047;28;20099;-77
2023/04/28 11:26:42;;;;;;;7.40;5.82;;;17.60;99.90;;;;;;5036350;28;20037;-77
2023/04/28 11:29:08;;;;;;;19.25;7.18;;;17.60;99.90;;;;;;5037150;28;20464;-76
2023/04/28 11:31:33;;;;;;;8.20;5.80;;;17.50;99.90;;;;;;5015534;28;20099;-77
2023/04/28 11:34:03;;;;;;;9.10;6.07;;;17.60;99.90;;;;;;5002788;28;20033;-76
2023/04/28 11:36:34;;;;;;;11.90;6.93;;;17.40;99.90;;;;;;5039099;28;20569;-76
2023/04/28 11:39:00;;;;;;;7.60;6.85;;;17.40;99.90;;;;;;5023229;28;20037;-76
2023/04/28 11:41:25;;;;;;;9.02;8.05;;;17.50;99.90;;;;;;5022275;28;20025;-77
2023/04/28 11:43:51;;;;;;;8.73;5.50;;;17.90;99.90;;;;;;5024581;28;20488;-76
2023/04/28 11:46:21;;;;;;;7.43;6.30;;;17.70;99.90;;;;;;5024714;28;20038;-77
2023/04/28 11:48:47;;;;;;;7.72;5.53;;;18.00;99.90;;;;;;5040251;28;20486;-76
2023/04/28 11:51:31;;;;;;;6.60;6.00;;;18.60;99.90;;;;;;5023806;28;20056;-77
2023/04/28 11:53:57;;;;;;;9.25;5.53;;;19.20;99.90;;;;;;5038101;28;20368;-77
2023/04/28 11:56:22;;;;;;;8.38;5.97;;;18.90;99.90;;;;;;5023368;28;20029;-77
2023/04/28 11:59:07;;;;;;;8.68;6.75;;;18.80;99.90;;;;;;5038188;28;20041;-77
2023/04/28 12:01:36;;;;;;;6.95;6.03;;;19.30;99.90;;;;;;5022609;28;20330;-77
2023/04/28 12:04:02;;;;;;;4.10;2.47;;;19.50;99.90;;;;;;5023145;28;20628;-77
2023/04/28 12:06:27;;;;;;;8.23;6.18;;;18.90;99.90;;;;;;5038102;28;20109;-78
2023/04/28 12:08:53;;;;;;;7.40;5.25;;;19.30;99.90;;;;;;5031780;28;20151;-78
2023/04/28 12:11:20;;;;;;;9.48;7.25;;;19.70;99.90;;;;;;5022809;28;20033;-78
2023/04/28 12:14:05;;;;;;;9.02;8.13;;;19.40;99.90;;;;;;5021410;28;20053;-79
2023/04/28 12:16:38;;;;;;;6.22;5.20;;;19.80;99.90;;;;;;5025336;28;20404;-78
2023/04/28 12:19:08;;;;;;;6.78;5.15;;;20.20;99.90;;;;;;5025715;28;20124;-79
2023/04/28 12:21:34;;;;;;;6.07;4.88;;;20.10;99.90;;;;;;5044093;28;20559;-79
2023/04/28 12:24:00;;;;;;;7.07;5.13;;;20.40;99.90;;;;;;5041261;28;20029;-79
2023/04/28 12:26:25;;;;;;;7.40;6.30;;;20.10;99.90;;;;;;5042267;28;20033;-79
2023/04/28 12:28:51;;;;;;;6.45;5.85;;;20.50;99.90;;;;;;5041344;28;20484;-79
2023/04/28 12:31:17;;;;;;;6.25;5.05;;;20.70;99.90;;;;;;5028821;28;20029;-79
2023/04/28 12:33:43;;;;;;;6.63;5.10;;;20.60;99.90;;;;;;5027258;28;20074;-79
2023/04/28 12:36:09;;;;;;;12.60;10.05;;;20.60;99.90;;;;;;5023932;28;20859;-79
2023/04/28 12:38:37;;;;;;;8.68;7.88;;;20.60;99.90;;;;;;5026018;28;20025;-78
2023/04/28 12:41:03;;;;;;;7.95;6.50;;;20.60;99.90;;;;;;5041745;28;20037;-78